Time;durP1;ratioP1;P1;durP2;ratioP2;P2;SDS_P1;SDS_P2;PMS_P1;PMS_P2;Temp;Humidity;BMP_temperature;BMP_pressure;BME280_temperature;BME280_humidity;BME280_pressure;Samples;Min_cycle;Max_cycle;Signal;HPM_P1;HPM_P2
2021/04/22 00:00:51;;;;;;;;;;;23.50;31.80;;;;;;497378;239;948;-72
2021/04/22 00:02:52;;;;;;;;;;;23.50;31.80;;;;;;497299;240;1093;-72
2021/04/22 00:04:54;;;;;;;;;;;23.50;31.80;;;;;;497371;239;971;-72
2021/04/22 00:06:55;;;;;;;;;;;23.50;31.70;;;;;;497320;239;978;-71
2021/04/22 00:08:56;;;;;;;;;;;23.60;31.70;;;;;;497426;239;943;-72
2021/04/22 00:10:58;;;;;;;;;;;23.60;31.70;;;;;;497323;239;2188;-71
2021/04/22 00:12:59;;;;;;;;;;;23.60;31.70;;;;;;497455;235;1329;-72
2021/04/22 00:15:00;;;;;;;;;;;23.60;31.60;;;;;;497419;239;944;-72
2021/04/22 00:17:01;;;;;;;;;;;23.60;31.60;;;;;;497339;239;1414;-72
2021/04/22 00:19:03;;;;;;;;;;;23.60;31.70;;;;;;497447;239;979;-71
2021/04/22 00:21:04;;;;;;;;;;;23.60;31.80;;;;;;497420;239;1049;-72
2021/04/22 00:23:05;;;;;;;;;;;23.60;31.70;;;;;;497398;239;942;-71
2021/04/22 00:25:07;;;;;;;;;;;23.60;31.70;;;;;;497398;239;1020;-71
2021/04/22 00:27:08;;;;;;;;;;;23.60;31.60;;;;;;497427;239;1087;-72
2021/04/22 00:29:09;;;;;;;;;;;23.60;31.70;;;;;;497447;239;1091;-72
2021/04/22 00:31:10;;;;;;;;;;;23.60;31.70;;;;;;497396;239;2178;-71
2021/04/22 00:33:12;;;;;;;;;;;23.60;31.60;;;;;;497353;239;965;-72
2021/04/22 00:35:13;;;;;;;;;;;23.60;31.60;;;;;;497375;239;1075;-71
2021/04/22 00:37:14;;;;;;;;;;;23.90;31.40;;;;;;497389;239;1014;-72
2021/04/22 00:39:16;;;;;;;;;;;23.80;31.40;;;;;;497321;239;1081;-72
2021/04/22 00:41:17;;;;;;;;;;;23.90;31.30;;;;;;497232;236;1314;-72
2021/04/22 00:43:18;;;;;;;;;;;23.80;31.40;;;;;;497352;239;1127;-72
2021/04/22 00:45:19;;;;;;;;;;;23.80;31.50;;;;;;497313;239;1204;-72
2021/04/22 00:47:21;;;;;;;;;;;23.80;31.50;;;;;;497308;239;951;-72
2021/04/22 00:49:22;;;;;;;;;;;23.80;31.50;;;;;;497431;239;1053;-72
2021/04/22 00:51:23;;;;;;;;;;;23.70;31.50;;;;;;497346;239;2094;-72
2021/04/22 00:53:25;;;;;;;;;;;23.80;31.50;;;;;;497372;240;933;-72
2021/04/22 00:55:26;;;;;;;;;;;23.70;31.50;;;;;;497429;239;1028;-72
2021/04/22 00:57:27;;;;;;;;;;;23.70;31.50;;;;;;497365;239;1030;-72
2021/04/22 00:59:28;;;;;;;;;;;23.70;31.50;;;;;;497450;239;1171;-72
2021/04/22 01:01:30;;;;;;;;;;;23.70;31.50;;;;;;497341;239;1046;-72
2021/04/22 01:03:31;;;;;;;;;;;23.70;31.60;;;;;;497404;239;1049;-72
2021/04/22 01:05:32;;;;;;;;;;;23.60;31.50;;;;;;497254;239;1307;-72
2021/04/22 01:07:34;;;;;;;;;;;23.70;31.60;;;;;;497351;239;1032;-72
2021/04/22 01:09:35;;;;;;;;;;;23.70;31.50;;;;;;497391;239;986;-72
2021/04/22 01:11:36;;;;;;;;;;;23.60;31.50;;;;;;497224;239;1255;-72
2021/04/22 01:13:37;;;;;;;;;;;23.70;31.50;;;;;;497388;239;1368;-72
2021/04/22 01:15:39;;;;;;;;;;;23.60;31.50;;;;;;497384;239;1096;-72
2021/04/22 01:17:40;;;;;;;;;;;23.60;31.60;;;;;;497283;239;1099;-71
2021/04/22 01:19:41;;;;;;;;;;;23.60;31.60;;;;;;497416;239;1056;-71
2021/04/22 01:21:42;;;;;;;;;;;23.70;31.60;;;;;;497248;239;1218;-71
2021/04/22 01:23:44;;;;;;;;;;;23.60;31.60;;;;;;497403;239;999;-72
2021/04/22 01:25:45;;;;;;;;;;;23.60;31.60;;;;;;497431;240;950;-72
2021/04/22 01:27:46;;;;;;;;;;;23.70;31.60;;;;;;497342;239;1125;-71
2021/04/22 01:29:48;;;;;;;;;;;23.60;31.60;;;;;;497245;240;2168;-71
2021/04/22 01:31:49;;;;;;;;;;;23.60;31.50;;;;;;497399;239;1178;-71
2021/04/22 01:33:50;;;;;;;;;;;23.60;31.50;;;;;;497352;238;957;-72
2021/04/22 01:35:52;;;;;;;;;;;23.60;31.50;;;;;;497294;239;982;-72
2021/04/22 01:37:53;;;;;;;;;;;23.60;31.60;;;;;;497447;239;1047;-72
2021/04/22 01:39:54;;;;;;;;;;;23.70;31.50;;;;;;497358;239;1249;-71
2021/04/22 01:41:55;;;;;;;;;;;23.60;31.60;;;;;;497269;239;1075;-71
2021/04/22 01:43:57;;;;;;;;;;;23.60;31.60;;;;;;497476;239;1180;-71
2021/04/22 01:45:58;;;;;;;;;;;23.60;31.50;;;;;;497347;239;1096;-71
2021/04/22 01:47:59;;;;;;;;;;;23.60;31.60;;;;;;497296;239;969;-71
2021/04/22 01:50:00;;;;;;;;;;;23.60;31.50;;;;;;497433;239;2185;-72
2021/04/22 01:52:02;;;;;;;;;;;23.50;31.60;;;;;;497293;239;1076;-72
2021/04/22 01:54:03;;;;;;;;;;;23.60;31.70;;;;;;497348;239;1004;-71
2021/04/22 01:56:04;;;;;;;;;;;23.60;31.60;;;;;;497285;239;1372;-71
2021/04/22 01:58:06;;;;;;;;;;;23.60;31.60;;;;;;497313;239;1107;-72
2021/04/22 02:00:07;;;;;;;;;;;23.50;31.70;;;;;;497393;239;1186;-72
2021/04/22 02:02:08;;;;;;;;;;;23.50;31.70;;;;;;497269;239;1196;-72
2021/04/22 02:04:09;;;;;;;;;;;23.40;31.80;;;;;;497280;239;1050;-72
2021/04/22 02:06:11;;;;;;;;;;;23.50;31.70;;;;;;497330;236;1178;-71
2021/04/22 02:08:12;;;;;;;;;;;23.40;31.80;;;;;;497326;240;1062;-72
2021/04/22 02:10:13;;;;;;;;;;;23.40;31.90;;;;;;497217;239;2184;-72
2021/04/22 02:12:15;;;;;;;;;;;23.40;32.00;;;;;;497331;239;1121;-71
2021/04/22 02:14:16;;;;;;;;;;;23.40;31.90;;;;;;497476;240;1158;-72
2021/04/22 02:16:17;;;;;;;;;;;23.40;31.90;;;;;;497354;239;1122;-72
2021/04/22 02:18:19;;;;;;;;;;;23.40;31.90;;;;;;497341;240;983;-72
2021/04/22 02:20:20;;;;;;;;;;;23.30;31.90;;;;;;497333;239;1088;-71
2021/04/22 02:22:21;;;;;;;;;;;23.30;32.00;;;;;;497375;239;1139;-72
2021/04/22 02:24:22;;;;;;;;;;;23.30;32.00;;;;;;497365;239;1049;-72
2021/04/22 02:26:24;;;;;;;;;;;23.30;31.80;;;;;;497268;236;1086;-72
2021/04/22 02:28:25;;;;;;;;;;;23.30;31.80;;;;;;497380;240;1065;-71
2021/04/22 02:30:26;;;;;;;;;;;23.30;31.80;;;;;;497371;239;2196;-72
2021/04/22 02:32:27;;;;;;;;;;;23.30;31.80;;;;;;497340;239;1094;-71
2021/04/22 02:34:29;;;;;;;;;;;23.40;31.70;;;;;;497328;239;1032;-71
2021/04/22 02:36:30;;;;;;;;;;;23.30;31.80;;;;;;497275;239;1199;-71
2021/04/22 02:38:31;;;;;;;;;;;23.30;31.80;;;;;;497396;239;959;-71
2021/04/22 02:40:33;;;;;;;;;;;23.30;31.70;;;;;;497325;239;1085;-72
2021/04/22 02:42:34;;;;;;;;;;;23.30;31.80;;;;;;497287;239;1172;-72
2021/04/22 02:44:35;;;;;;;;;;;23.20;31.90;;;;;;497350;239;1162;-72
2021/04/22 02:46:36;;;;;;;;;;;23.20;31.90;;;;;;497293;239;1188;-71
2021/04/22 02:48:38;;;;;;;;;;;23.20;31.80;;;;;;497336;239;1033;-71
2021/04/22 02:50:39;;;;;;;;;;;23.20;31.80;;;;;;497169;239;2193;-72
2021/04/22 02:52:40;;;;;;;;;;;23.20;31.70;;;;;;497306;239;1025;-72
2021/04/22 02:54:42;;;;;;;;;;;23.20;31.70;;;;;;497258;239;953;-71
2021/04/22 02:56:43;;;;;;;;;;;23.20;31.80;;;;;;497202;240;1204;-71
2021/04/22 02:58:44;;;;;;;;;;;23.10;31.80;;;;;;497326;239;957;-72
2021/04/22 03:00:45;;;;;;;;;;;23.20;31.80;;;;;;497371;239;1170;-72
2021/04/22 03:02:47;;;;;;;;;;;23.10;31.90;;;;;;497391;239;1060;-72
2021/04/22 03:04:48;;;;;;;;;;;23.20;31.80;;;;;;497263;239;945;-72
2021/04/22 03:06:49;;;;;;;;;;;23.20;31.80;;;;;;497302;240;1216;-71
2021/04/22 03:08:51;;;;;;;;;;;23.10;31.80;;;;;;497308;239;977;-71
2021/04/22 03:10:52;;;;;;;;;;;23.20;31.80;;;;;;497248;239;2209;-72
2021/04/22 03:12:53;;;;;;;;;;;23.10;31.80;;;;;;497391;239;1083;-72
2021/04/22 03:14:54;;;;;;;;;;;23.10;31.80;;;;;;497339;239;1139;-71
2021/04/22 03:16:56;;;;;;;;;;;23.00;31.80;;;;;;497407;239;1029;-72
2021/04/22 03:18:57;;;;;;;;;;;23.10;31.90;;;;;;497416;239;931;-72
2021/04/22 03:20:58;;;;;;;;;;;23.00;31.90;;;;;;497401;239;1003;-72
2021/04/22 03:23:00;;;;;;;;;;;23.00;31.80;;;;;;497279;239;984;-71
2021/04/22 03:25:01;;;;;;;;;;;23.00;31.80;;;;;;497408;239;1107;-72
2021/04/22 03:27:02;;;;;;;;;;;23.10;31.80;;;;;;497342;239;1031;-72
2021/04/22 03:29:03;;;;;;;;;;;23.00;31.90;;;;;;497374;239;982;-72
2021/04/22 03:31:05;;;;;;;;;;;23.00;31.90;;;;;;497323;239;2177;-72
2021/04/22 03:33:06;;;;;;;;;;;22.90;31.90;;;;;;497400;239;926;-71
2021/04/22 03:35:08;;;;;;;;;;;23.00;32.00;;;;;;497329;239;1114;-71
2021/04/22 03:37:09;;;;;;;;;;;23.00;31.90;;;;;;497270;239;1399;-71
2021/04/22 03:39:10;;;;;;;;;;;23.00;31.90;;;;;;497404;239;1036;-71
2021/04/22 03:41:11;;;;;;;;;;;22.90;31.90;;;;;;497352;239;984;-71
2021/04/22 03:43:12;;;;;;;;;;;22.90;31.90;;;;;;497345;239;1027;-71
2021/04/22 03:45:14;;;;;;;;;;;23.00;31.80;;;;;;497260;239;1148;-72
2021/04/22 03:47:15;;;;;;;;;;;23.00;31.80;;;;;;497226;239;1266;-72
2021/04/22 03:49:16;;;;;;;;;;;23.00;31.80;;;;;;497316;240;1034;-72
2021/04/22 03:51:17;;;;;;;;;;;23.10;31.80;;;;;;497282;239;2184;-72
2021/04/22 03:53:19;;;;;;;;;;;23.00;31.80;;;;;;497306;239;1054;-72
2021/04/22 03:55:20;;;;;;;;;;;23.00;31.90;;;;;;497262;239;1046;-72
2021/04/22 03:57:21;;;;;;;;;;;23.00;31.90;;;;;;497219;239;1089;-72
2021/04/22 03:59:23;;;;;;;;;;;23.00;32.00;;;;;;497361;239;1137;-72
2021/04/22 04:01:24;;;;;;;;;;;22.90;31.90;;;;;;497224;239;1272;-71
2021/04/22 04:03:25;;;;;;;;;;;22.90;32.00;;;;;;497402;239;1103;-72
2021/04/22 04:05:26;;;;;;;;;;;22.90;31.90;;;;;;497325;239;1050;-71
2021/04/22 04:07:28;;;;;;;;;;;22.90;31.90;;;;;;497217;239;1171;-71
2021/04/22 04:09:29;;;;;;;;;;;22.90;31.90;;;;;;497382;239;1049;-71
2021/04/22 04:11:30;;;;;;;;;;;22.90;32.00;;;;;;497220;239;2138;-71
2021/04/22 04:13:32;;;;;;;;;;;23.00;31.90;;;;;;497321;239;1045;-71
2021/04/22 04:15:33;;;;;;;;;;;23.00;32.10;;;;;;497142;239;1153;-71
2021/04/22 04:17:34;;;;;;;;;;;23.00;32.00;;;;;;497224;239;1038;-71
2021/04/22 04:19:35;;;;;;;;;;;23.00;32.10;;;;;;497291;239;996;-71
2021/04/22 04:21:37;;;;;;;;;;;23.00;32.10;;;;;;497311;239;1130;-71
2021/04/22 04:23:38;;;;;;;;;;;23.00;32.00;;;;;;497260;239;974;-71
2021/04/22 04:25:39;;;;;;;;;;;23.10;32.00;;;;;;497342;239;1008;-71
2021/04/22 04:27:41;;;;;;;;;;;23.10;32.00;;;;;;497254;239;1201;-71
2021/04/22 04:29:42;;;;;;;;;;;23.00;32.10;;;;;;497181;239;995;-71
2021/04/22 04:31:43;;;;;;;;;;;23.00;32.00;;;;;;497020;239;2181;-71
2021/04/22 04:33:44;;;;;;;;;;;23.10;32.00;;;;;;497219;239;941;-71
2021/04/22 04:35:46;;;;;;;;;;;23.10;31.90;;;;;;497185;239;1195;-71
2021/04/22 04:37:47;;;;;;;;;;;23.10;31.90;;;;;;497279;239;1063;-71
2021/04/22 04:39:48;;;;;;;;;;;23.10;31.90;;;;;;497204;239;1024;-71
2021/04/22 04:41:49;;;;;;;;;;;23.20;31.80;;;;;;497058;239;1182;-71
2021/04/22 04:43:51;;;;;;;;;;;23.20;31.80;;;;;;497261;239;989;-71
2021/04/22 04:45:52;;;;;;;;;;;23.30;31.80;;;;;;497171;239;1132;-71
2021/04/22 04:47:53;;;;;;;;;;;23.30;31.70;;;;;;497151;239;1093;-71
2021/04/22 04:49:55;;;;;;;;;;;23.40;31.70;;;;;;496991;239;1041;-71
2021/04/22 04:51:56;;;;;;;;;;;23.40;31.70;;;;;;496999;235;2200;-71
2021/04/22 04:53:57;;;;;;;;;;;23.40;31.60;;;;;;496945;239;1157;-71
2021/04/22 04:55:58;;;;;;;;;;;23.40;31.70;;;;;;496884;239;1144;-71
2021/04/22 04:58:00;;;;;;;;;;;23.40;31.60;;;;;;496899;239;1131;-71
2021/04/22 05:00:01;;;;;;;;;;;23.40;31.70;;;;;;496933;239;1217;-71
2021/04/22 05:02:02;;;;;;;;;;;23.40;31.70;;;;;;496841;239;1229;-71
2021/04/22 05:04:04;;;;;;;;;;;23.40;31.80;;;;;;496974;239;1038;-71
2021/04/22 05:06:05;;;;;;;;;;;23.40;31.80;;;;;;496972;239;1078;-71
2021/04/22 05:08:06;;;;;;;;;;;23.50;31.70;;;;;;496907;239;1044;-71
2021/04/22 05:10:07;;;;;;;;;;;23.50;31.70;;;;;;496919;239;1038;-72
2021/04/22 05:12:09;;;;;;;;;;;23.40;31.70;;;;;;496881;239;2206;-72
2021/04/22 05:14:10;;;;;;;;;;;23.40;31.70;;;;;;497042;239;977;-72
2021/04/22 05:16:11;;;;;;;;;;;23.50;31.70;;;;;;496993;239;1173;-72
2021/04/22 05:18:12;;;;;;;;;;;23.50;31.60;;;;;;497045;239;1091;-72
2021/04/22 05:20:14;;;;;;;;;;;23.50;31.70;;;;;;497044;239;1211;-72
2021/04/22 05:22:15;;;;;;;;;;;23.50;31.70;;;;;;496958;239;1034;-72
2021/04/22 05:24:16;;;;;;;;;;;23.60;31.60;;;;;;496991;240;1032;-72
2021/04/22 05:26:19;;;;;;;;;;;23.70;31.60;;;;;;496947;239;1050;-72
2021/04/22 05:28:20;;;;;;;;;;;23.70;31.60;;;;;;496954;239;1071;-72
2021/04/22 05:30:21;;;;;;;;;;;23.80;31.60;;;;;;496973;239;1041;-72
2021/04/22 05:32:22;;;;;;;;;;;23.80;31.60;;;;;;496873;239;2181;-71
2021/04/22 05:34:24;;;;;;;;;;;23.80;31.50;;;;;;496999;239;1056;-72
2021/04/22 05:36:25;;;;;;;;;;;23.80;31.50;;;;;;496968;239;1043;-72
2021/04/22 05:38:27;;;;;;;;;;;23.90;31.40;;;;;;496937;239;1019;-72
2021/04/22 05:40:28;;;;;;;;;;;23.80;31.40;;;;;;496895;239;1031;-71
2021/04/22 05:42:29;;;;;;;;;;;23.80;31.40;;;;;;496915;239;1059;-71
2021/04/22 05:44:31;;;;;;;;;;;23.80;31.50;;;;;;496886;239;989;-71
2021/04/22 05:46:32;;;;;;;;;;;23.80;31.50;;;;;;496862;238;1538;-72
2021/04/22 05:48:33;;;;;;;;;;;23.80;31.70;;;;;;496915;239;1286;-72
2021/04/22 05:50:34;;;;;;;;;;;23.80;31.60;;;;;;496891;240;1047;-72
2021/04/22 05:52:36;;;;;;;;;;;23.80;31.60;;;;;;496913;239;2194;-71
2021/04/22 05:54:37;;;;;;;;;;;23.80;31.70;;;;;;496855;239;1041;-71
2021/04/22 05:56:38;;;;;;;;;;;23.90;31.60;;;;;;496749;239;1221;-71
2021/04/22 05:58:40;;;;;;;;;;;23.90;31.60;;;;;;496925;239;995;-71
2021/04/22 06:00:41;;;;;;;;;;;23.90;31.50;;;;;;496835;239;982;-71
2021/04/22 06:02:42;;;;;;;;;;;23.90;31.70;;;;;;496774;239;1174;-71
2021/04/22 06:04:43;;;;;;;;;;;23.80;31.70;;;;;;496855;239;1069;-71
2021/04/22 06:06:45;;;;;;;;;;;23.70;31.80;;;;;;496752;239;1215;-71
2021/04/22 06:08:46;;;;;;;;;;;23.60;32.00;;;;;;496910;238;1010;-72
2021/04/22 06:10:47;;;;;;;;;;;23.60;32.10;;;;;;496736;239;1130;-72
2021/04/22 06:12:48;;;;;;;;;;;23.50;32.20;;;;;;496781;239;2127;-72
2021/04/22 06:14:50;;;;;;;;;;;23.50;32.30;;;;;;496461;239;1030;-72
2021/04/22 06:16:51;;;;;;;;;;;23.40;32.40;;;;;;496447;239;1206;-72
2021/04/22 06:18:52;;;;;;;;;;;23.40;32.50;;;;;;496827;239;985;-72
2021/04/22 06:20:54;;;;;;;;;;;23.40;32.60;;;;;;496768;239;1225;-72
2021/04/22 06:22:55;;;;;;;;;;;23.40;32.60;;;;;;496756;239;1179;-72
2021/04/22 06:24:56;;;;;;;;;;;23.30;32.70;;;;;;496740;239;1078;-72
2021/04/22 06:26:57;;;;;;;;;;;23.30;32.80;;;;;;496694;239;1177;-72
2021/04/22 06:29:03;;;;;;;;;;;23.20;32.90;;;;;;496810;238;1019;-72
2021/04/22 06:31:01;;;;;;;;;;;23.20;32.90;;;;;;496724;239;1312;-72
2021/04/22 06:33:03;;;;;;;;;;;23.20;33.10;;;;;;496811;239;2177;-72
2021/04/22 06:35:04;;;;;;;;;;;23.20;33.10;;;;;;496675;239;1357;-72
2021/04/22 06:37:05;;;;;;;;;;;23.20;33.20;;;;;;496616;239;1053;-72
2021/04/22 06:39:06;;;;;;;;;;;23.10;33.10;;;;;;496787;239;1077;-72
2021/04/22 06:41:07;;;;;;;;;;;23.40;33.00;;;;;;496708;239;1057;-72
2021/04/22 06:43:12;;;;;;;;;;;23.40;33.00;;;;;;496787;239;1038;-72
2021/04/22 06:45:10;;;;;;;;;;;23.40;32.80;;;;;;496606;239;1411;-72
2021/04/22 06:47:12;;;;;;;;;;;23.50;32.80;;;;;;496769;239;1164;-72
2021/04/22 06:49:13;;;;;;;;;;;23.40;32.90;;;;;;496697;240;1072;-72
2021/04/22 06:51:15;;;;;;;;;;;23.40;32.90;;;;;;496788;239;988;-71
2021/04/22 06:53:16;;;;;;;;;;;23.40;33.00;;;;;;496702;239;2134;-71
2021/04/22 06:55:17;;;;;;;;;;;23.50;33.00;;;;;;496608;239;1061;-71
2021/04/22 06:57:19;;;;;;;;;;;23.40;32.90;;;;;;496689;239;1083;-71
2021/04/22 06:59:20;;;;;;;;;;;23.40;32.90;;;;;;496777;239;1047;-71
2021/04/22 07:01:21;;;;;;;;;;;23.40;33.00;;;;;;496330;239;1198;-71
2021/04/22 07:03:22;;;;;;;;;;;23.40;33.00;;;;;;496766;239;1184;-71
2021/04/22 07:05:24;;;;;;;;;;;23.40;33.10;;;;;;496777;239;1031;-71
2021/04/22 07:07:25;;;;;;;;;;;23.30;33.10;;;;;;496721;239;1031;-71
2021/04/22 07:09:26;;;;;;;;;;;23.30;33.10;;;;;;496754;239;1171;-71
2021/04/22 07:11:28;;;;;;;;;;;23.30;33.20;;;;;;496612;239;1233;-72
2021/04/22 07:13:29;;;;;;;;;;;23.40;33.20;;;;;;496611;239;2189;-71
2021/04/22 07:15:31;;;;;;;;;;;23.40;33.20;;;;;;496499;239;1127;-71
2021/04/22 07:17:32;;;;;;;;;;;23.30;33.20;;;;;;496604;239;1095;-71
2021/04/22 07:19:33;;;;;;;;;;;23.40;33.20;;;;;;496525;239;1043;-71
2021/04/22 07:21:34;;;;;;;;;;;23.40;33.20;;;;;;496520;237;1171;-72
2021/04/22 07:23:36;;;;;;;;;;;23.40;33.10;;;;;;496677;239;1046;-72
2021/04/22 07:25:37;;;;;;;;;;;23.40;33.10;;;;;;496358;239;1200;-72
2021/04/22 07:27:38;;;;;;;;;;;23.50;33.10;;;;;;496480;239;1161;-72
2021/04/22 07:29:44;;;;;;;;;;;23.40;33.10;;;;;;496488;239;1075;-72
2021/04/22 07:31:41;;;;;;;;;;;23.40;33.30;;;;;;496411;239;1430;-72
2021/04/22 07:33:42;;;;;;;;;;;23.70;32.80;;;;;;496579;239;2225;-72
2021/04/22 07:35:44;;;;;;;;;;;23.40;33.00;;;;;;496478;239;1060;-71
2021/04/22 07:37:45;;;;;;;;;;;23.50;33.10;;;;;;496593;239;1116;-72
2021/04/22 07:39:46;;;;;;;;;;;23.50;33.10;;;;;;496413;239;1227;-72
2021/04/22 07:41:48;;;;;;;;;;;23.10;33.50;;;;;;496460;239;1197;-72
2021/04/22 07:43:49;;;;;;;;;;;23.00;33.80;;;;;;496414;239;1080;-72
2021/04/22 07:45:50;;;;;;;;;;;23.00;33.80;;;;;;496400;239;982;-72
2021/04/22 07:47:52;;;;;;;;;;;23.10;33.80;;;;;;496507;239;1317;-71
2021/04/22 07:49:53;;;;;;;;;;;23.10;33.80;;;;;;496683;239;1056;-71
2021/04/22 07:51:54;;;;;;;;;;;23.10;33.80;;;;;;496612;239;2177;-71
2021/04/22 07:53:55;;;;;;;;;;;23.00;33.70;;;;;;496348;239;1122;-71
2021/04/22 07:55:57;;;;;;;;;;;23.10;33.70;;;;;;496306;239;1113;-71
2021/04/22 07:57:58;;;;;;;;;;;23.10;33.80;;;;;;496437;239;1093;-71
2021/04/22 07:59:59;;;;;;;;;;;23.10;33.80;;;;;;496458;239;1027;-71
2021/04/22 08:02:01;;;;;;;;;;;23.00;34.00;;;;;;496381;239;1182;-71
2021/04/22 08:04:04;;;;;;;;;;;23.00;34.00;;;;;;496686;239;1272;-72
2021/04/22 08:06:03;;;;;;;;;;;23.00;34.10;;;;;;496537;239;1394;-71
2021/04/22 08:08:04;;;;;;;;;;;23.00;34.10;;;;;;496808;239;1198;-71
2021/04/22 08:10:06;;;;;;;;;;;23.00;34.00;;;;;;496702;239;1055;-71
2021/04/22 08:12:07;;;;;;;;;;;23.00;34.10;;;;;;496660;239;2184;-72
2021/04/22 08:14:08;;;;;;;;;;;23.00;34.20;;;;;;496520;239;1041;-72
2021/04/22 08:16:10;;;;;;;;;;;22.90;34.20;;;;;;496553;236;1193;-72
2021/04/22 08:18:11;;;;;;;;;;;22.90;34.10;;;;;;496715;239;1199;-71
2021/04/22 08:20:12;;;;;;;;;;;22.90;34.20;;;;;;496451;239;1051;-72
2021/04/22 08:22:13;;;;;;;;;;;22.90;34.20;;;;;;496479;239;1231;-71
2021/04/22 08:24:18;;;;;;;;;;;23.00;34.30;;;;;;496910;239;1069;-74
2021/04/22 08:26:19;;;;;;;;;;;22.90;34.40;;;;;;496639;240;1245;-72
2021/04/22 08:28:20;;;;;;;;;;;23.00;34.30;;;;;;496706;239;1157;-72
2021/04/22 08:30:22;;;;;;;;;;;23.00;34.30;;;;;;496727;239;1033;-72
2021/04/22 08:32:23;;;;;;;;;;;23.10;34.10;;;;;;496793;239;2165;-71
2021/04/22 08:34:26;;;;;;;;;;;23.10;34.10;;;;;;496977;239;1179;-72
2021/04/22 08:36:26;;;;;;;;;;;23.20;34.00;;;;;;496699;239;1399;-72
2021/04/22 08:38:27;;;;;;;;;;;23.20;33.80;;;;;;496735;239;1080;-72
2021/04/22 08:40:29;;;;;;;;;;;23.30;33.80;;;;;;496496;239;1107;-72
2021/04/22 08:42:30;;;;;;;;;;;23.20;33.80;;;;;;496476;239;1183;-71
2021/04/22 08:44:31;;;;;;;;;;;23.20;33.80;;;;;;496805;239;1027;-72
2021/04/22 08:46:33;;;;;;;;;;;23.10;34.00;;;;;;496908;239;1211;-72
2021/04/22 08:48:34;;;;;;;;;;;23.10;34.10;;;;;;496854;239;1160;-72
2021/04/22 08:50:35;;;;;;;;;;;23.00;34.30;;;;;;496856;239;1034;-72
2021/04/22 08:52:36;;;;;;;;;;;23.00;34.40;;;;;;496800;239;2180;-72
2021/04/22 08:54:38;;;;;;;;;;;22.90;34.40;;;;;;496682;239;1047;-71
2021/04/22 08:56:39;;;;;;;;;;;22.90;34.60;;;;;;496662;239;1331;-71
2021/04/22 08:58:41;;;;;;;;;;;22.80;34.70;;;;;;496659;239;1041;-71
2021/04/22 09:00:42;;;;;;;;;;;22.80;34.70;;;;;;496778;239;1248;-72
2021/04/22 09:02:43;;;;;;;;;;;22.70;34.70;;;;;;497024;239;1097;-72
2021/04/22 09:04:44;;;;;;;;;;;22.70;34.80;;;;;;496837;239;1430;-73
2021/04/22 09:06:45;;;;;;;;;;;22.70;34.90;;;;;;496779;239;1116;-72
2021/04/22 09:08:47;;;;;;;;;;;22.80;34.80;;;;;;496589;239;1080;-75
2021/04/22 09:10:48;;;;;;;;;;;22.80;34.80;;;;;;496491;239;1200;-74
2021/04/22 09:12:49;;;;;;;;;;;22.80;34.60;;;;;;496563;239;2185;-74
2021/04/22 09:14:51;;;;;;;;;;;22.90;34.60;;;;;;496557;239;1108;-77
2021/04/22 09:16:52;;;;;;;;;;;23.00;34.40;;;;;;496537;239;1061;-77
2021/04/22 09:18:53;;;;;;;;;;;23.10;34.40;;;;;;496919;239;1023;-74
2021/04/22 09:20:56;;;;;;;;;;;23.10;34.50;;;;;;496829;239;1079;-73
2021/04/22 09:22:56;;;;;;;;;;;23.00;34.60;;;;;;496671;240;1280;-76
2021/04/22 09:24:57;;;;;;;;;;;22.90;34.60;;;;;;496415;239;1130;-76
2021/04/22 09:27:01;;;;;;;;;;;23.20;34.30;;;;;;496462;239;1254;-74
2021/04/22 09:28:59;;;;;;;;;;;23.50;33.90;;;;;;496211;239;1198;-76
2021/04/22 09:31:01;;;;;;;;;;;23.70;33.60;;;;;;496481;239;1148;-72
2021/04/22 09:33:02;;;;;;;;;;;23.70;33.50;;;;;;496544;239;2166;-75
2021/04/22 09:35:03;;;;;;;;;;;23.70;33.40;;;;;;496491;239;1140;-75
2021/04/22 09:37:05;;;;;;;;;;;23.80;33.20;;;;;;496410;239;1190;-74
2021/04/22 09:39:06;;;;;;;;;;;23.90;33.10;;;;;;496555;239;1032;-74
2021/04/22 09:41:07;;;;;;;;;;;24.00;32.90;;;;;;496454;239;1175;-75
2021/04/22 09:43:08;;;;;;;;;;;24.10;32.80;;;;;;496676;239;1048;-75
2021/04/22 09:45:10;;;;;;;;;;;24.10;32.70;;;;;;496710;239;1072;-74
2021/04/22 09:47:11;;;;;;;;;;;24.20;32.70;;;;;;496691;239;1086;-74
2021/04/22 09:49:13;;;;;;;;;;;24.30;32.50;;;;;;496703;239;962;-75
2021/04/22 09:51:14;;;;;;;;;;;24.30;32.50;;;;;;496790;239;1022;-75
2021/04/22 09:53:15;;;;;;;;;;;24.40;32.40;;;;;;496718;239;2126;-75
2021/04/22 09:55:17;;;;;;;;;;;24.40;32.40;;;;;;496717;239;1329;-75
2021/04/22 09:57:18;;;;;;;;;;;24.40;32.30;;;;;;496637;239;1044;-75
2021/04/22 09:59:20;;;;;;;;;;;24.40;32.20;;;;;;496571;239;1090;-75
2021/04/22 10:01:21;;;;;;;;;;;24.50;32.10;;;;;;496713;239;1056;-75
2021/04/22 10:03:22;;;;;;;;;;;24.60;32.10;;;;;;496455;239;1062;-74
2021/04/22 10:05:23;;;;;;;;;;;24.60;31.80;;;;;;496406;239;1112;-75
2021/04/22 10:07:25;;;;;;;;;;;24.60;31.90;;;;;;496518;239;1036;-75
2021/04/22 10:09:26;;;;;;;;;;;24.50;31.90;;;;;;496637;239;1043;-75
2021/04/22 10:11:27;;;;;;;;;;;24.50;31.90;;;;;;496470;239;1214;-75
2021/04/22 10:13:29;;;;;;;;;;;24.60;31.90;;;;;;496547;239;2178;-74
2021/04/22 10:15:31;;;;;;;;;;;24.70;31.70;;;;;;496596;239;1112;-75
2021/04/22 10:17:32;;;;;;;;;;;24.60;31.70;;;;;;496600;239;1094;-75
2021/04/22 10:19:34;;;;;;;;;;;24.60;31.80;;;;;;496673;239;1020;-75
2021/04/22 10:21:35;;;;;;;;;;;24.50;31.90;;;;;;496712;236;1366;-74
2021/04/22 10:23:36;;;;;;;;;;;24.50;32.00;;;;;;496726;239;1294;-75
2021/04/22 10:25:39;;;;;;;;;;;24.40;32.00;;;;;;496534;239;1052;-74
2021/04/22 10:27:39;;;;;;;;;;;24.40;32.00;;;;;;496677;239;1436;-75
2021/04/22 10:29:40;;;;;;;;;;;24.30;32.20;;;;;;496486;239;1158;-75
2021/04/22 10:31:41;;;;;;;;;;;24.20;32.30;;;;;;496487;236;1333;-74
2021/04/22 10:33:43;;;;;;;;;;;24.20;32.40;;;;;;496482;239;2174;-75
2021/04/22 10:35:44;;;;;;;;;;;24.20;32.30;;;;;;496458;239;1138;-75
2021/04/22 10:37:45;;;;;;;;;;;24.30;32.20;;;;;;496662;239;1189;-75
2021/04/22 10:39:47;;;;;;;;;;;24.40;32.10;;;;;;496517;239;1002;-75
2021/04/22 10:41:48;;;;;;;;;;;24.40;32.00;;;;;;496307;239;1097;-75
2021/04/22 10:43:49;;;;;;;;;;;24.50;31.90;;;;;;496372;239;1029;-75
2021/04/22 10:45:50;;;;;;;;;;;24.50;32.00;;;;;;496593;239;1205;-75
2021/04/22 10:47:52;;;;;;;;;;;24.40;31.80;;;;;;496686;239;1055;-75
2021/04/22 10:49:53;;;;;;;;;;;24.50;31.80;;;;;;496546;239;1052;-75
2021/04/22 10:51:54;;;;;;;;;;;24.50;31.80;;;;;;496598;239;1174;-75
2021/04/22 10:53:55;;;;;;;;;;;24.50;31.80;;;;;;496546;239;2110;-75
2021/04/22 10:55:57;;;;;;;;;;;24.50;31.70;;;;;;496267;239;1203;-75
2021/04/22 10:57:58;;;;;;;;;;;24.60;31.60;;;;;;496697;239;1066;-74
2021/04/22 10:59:59;;;;;;;;;;;24.70;31.50;;;;;;496481;239;1070;-74
2021/04/22 11:02:00;;;;;;;;;;;24.80;31.50;;;;;;496495;239;1123;-74
2021/04/22 11:04:02;;;;;;;;;;;24.90;31.30;;;;;;496526;239;1125;-74
2021/04/22 11:06:03;;;;;;;;;;;25.00;31.20;;;;;;496455;239;1177;-74
2021/04/22 11:08:05;;;;;;;;;;;25.00;31.10;;;;;;496678;239;1094;-74
2021/04/22 11:10:06;;;;;;;;;;;25.00;31.10;;;;;;496434;239;1055;-74
2021/04/22 11:12:07;;;;;;;;;;;25.00;31.10;;;;;;496565;239;1143;-74
2021/04/22 11:14:10;;;;;;;;;;;24.90;31.20;;;;;;496590;239;2189;-74
2021/04/22 11:16:10;;;;;;;;;;;24.90;31.20;;;;;;496463;239;1298;-74
2021/04/22 11:18:11;;;;;;;;;;;24.90;31.10;;;;;;496598;239;1060;-74
2021/04/22 11:20:12;;;;;;;;;;;25.00;31.10;;;;;;496387;239;1075;-74
2021/04/22 11:22:14;;;;;;;;;;;25.00;31.00;;;;;;496370;239;1176;-74
2021/04/22 11:24:15;;;;;;;;;;;25.00;30.90;;;;;;496576;239;994;-74
2021/04/22 11:26:16;;;;;;;;;;;25.10;31.00;;;;;;496580;240;1128;-74
2021/04/22 11:28:19;;;;;;;;;;;25.10;31.00;;;;;;496568;239;1061;-74
2021/04/22 11:30:19;;;;;;;;;;;25.10;31.00;;;;;;496507;239;1393;-74
2021/04/22 11:32:20;;;;;;;;;;;25.10;31.00;;;;;;496558;239;1049;-74
2021/04/22 11:34:21;;;;;;;;;;;25.00;31.10;;;;;;496563;239;2189;-74
2021/04/22 11:36:23;;;;;;;;;;;24.80;31.10;;;;;;496695;239;1084;-74
2021/04/22 11:38:24;;;;;;;;;;;24.70;31.30;;;;;;496582;240;1028;-74
2021/04/22 11:40:25;;;;;;;;;;;24.50;31.60;;;;;;496525;239;1027;-73
2021/04/22 11:42:27;;;;;;;;;;;24.30;31.90;;;;;;496606;239;1124;-73
2021/04/22 11:44:28;;;;;;;;;;;24.00;32.20;;;;;;496655;239;1001;-73
2021/04/22 11:46:29;;;;;;;;;;;23.70;32.60;;;;;;496679;239;1105;-74
2021/04/22 11:48:30;;;;;;;;;;;23.40;33.00;;;;;;496666;239;1058;-73
2021/04/22 11:50:32;;;;;;;;;;;23.20;33.20;;;;;;496686;239;1027;-73
2021/04/22 11:52:33;;;;;;;;;;;23.10;33.40;;;;;;496725;239;1340;-74
2021/04/22 11:54:34;;;;;;;;;;;23.00;33.70;;;;;;496470;239;2160;-73
2021/04/22 11:56:35;;;;;;;;;;;22.90;33.70;;;;;;496504;239;1197;-73